sensor_id;sensor_type;location;lat;lon;timestamp;P1;durP1;ratioP1;P2;durP2;ratioP2
16478;SDS011;8350;52.316;10.530;2023-04-08T00:00:13;17.75;;;13.15;;
16478;SDS011;8350;52.316;10.530;2023-04-08T00:02:40;16.92;;;13.60;;
16478;SDS011;8350;52.316;10.530;2023-04-08T00:05:07;16.58;;;13.40;;
16478;SDS011;8350;52.316;10.530;2023-04-08T00:07:37;15.55;;;13.30;;
16478;SDS011;8350;52.316;10.530;2023-04-08T00:10:05;15.85;;;13.63;;
16478;SDS011;8350;52.316;10.530;2023-04-08T00:12:41;16.00;;;12.93;;
16478;SDS011;8350;52.316;10.530;2023-04-08T00:15:08;16.60;;;12.27;;
16478;SDS011;8350;52.316;10.530;2023-04-08T00:17:37;13.80;;;11.27;;
16478;SDS011;8350;52.316;10.530;2023-04-08T00:20:05;15.07;;;11.82;;
16478;SDS011;8350;52.316;10.530;2023-04-08T00:22:35;14.95;;;12.23;;
16478;SDS011;8350;52.316;10.530;2023-04-08T00:25:03;15.75;;;12.20;;
16478;SDS011;8350;52.316;10.530;2023-04-08T00:27:31;15.98;;;11.70;;
16478;SDS011;8350;52.316;10.530;2023-04-08T00:29:58;15.27;;;12.30;;
16478;SDS011;8350;52.316;10.530;2023-04-08T00:32:25;15.50;;;11.77;;
16478;SDS011;8350;52.316;10.530;2023-04-08T00:34:54;13.68;;;11.13;;
16478;SDS011;8350;52.316;10.530;2023-04-08T00:37:23;15.93;;;12.30;;
16478;SDS011;8350;52.316;10.530;2023-04-08T00:39:51;16.42;;;12.23;;
16478;SDS011;8350;52.316;10.530;2023-04-08T00:42:18;16.13;;;13.00;;
16478;SDS011;8350;52.316;10.530;2023-04-08T00:44:46;15.27;;;12.07;;
16478;SDS011;8350;52.316;10.530;2023-04-08T00:47:12;14.88;;;12.10;;
16478;SDS011;8350;52.316;10.530;2023-04-08T00:49:43;17.42;;;12.65;;
16478;SDS011;8350;52.316;10.530;2023-04-08T00:52:12;14.60;;;12.55;;
16478;SDS011;8350;52.316;10.530;2023-04-08T00:54:40;16.30;;;12.90;;
16478;SDS011;8350;52.316;10.530;2023-04-08T00:57:07;17.65;;;12.57;;
16478;SDS011;8350;52.316;10.530;2023-04-08T00:59:34;15.00;;;13.13;;
16478;SDS011;8350;52.316;10.530;2023-04-08T01:02:14;16.95;;;12.70;;
16478;SDS011;8350;52.316;10.530;2023-04-08T01:04:50;17.38;;;12.68;;
16478;SDS011;8350;52.316;10.530;2023-04-08T01:07:26;15.40;;;12.85;;
16478;SDS011;8350;52.316;10.530;2023-04-08T01:09:55;16.33;;;12.88;;
16478;SDS011;8350;52.316;10.530;2023-04-08T01:12:24;18.17;;;13.57;;
16478;SDS011;8350;52.316;10.530;2023-04-08T01:14:54;15.93;;;13.20;;
16478;SDS011;8350;52.316;10.530;2023-04-08T01:17:25;15.65;;;12.52;;
16478;SDS011;8350;52.316;10.530;2023-04-08T01:19:52;15.73;;;12.70;;
16478;SDS011;8350;52.316;10.530;2023-04-08T01:22:22;16.70;;;12.80;;
16478;SDS011;8350;52.316;10.530;2023-04-08T01:25:00;15.05;;;12.05;;
16478;SDS011;8350;52.316;10.530;2023-04-08T01:27:33;16.83;;;13.30;;
16478;SDS011;8350;52.316;10.530;2023-04-08T01:30:01;17.95;;;12.57;;
16478;SDS011;8350;52.316;10.530;2023-04-08T01:32:30;17.48;;;13.68;;
16478;SDS011;8350;52.316;10.530;2023-04-08T01:34:57;16.10;;;13.50;;
16478;SDS011;8350;52.316;10.530;2023-04-08T01:37:25;16.70;;;12.65;;
16478;SDS011;8350;52.316;10.530;2023-04-08T01:39:54;19.30;;;14.02;;
16478;SDS011;8350;52.316;10.530;2023-04-08T01:42:23;17.33;;;13.52;;
16478;SDS011;8350;52.316;10.530;2023-04-08T01:44:52;16.77;;;13.25;;
16478;SDS011;8350;52.316;10.530;2023-04-08T01:47:22;19.80;;;13.70;;
16478;SDS011;8350;52.316;10.530;2023-04-08T01:49:50;19.65;;;13.45;;
16478;SDS011;8350;52.316;10.530;2023-04-08T01:52:19;14.27;;;11.90;;
16478;SDS011;8350;52.316;10.530;2023-04-08T01:54:47;18.20;;;13.48;;
16478;SDS011;8350;52.316;10.530;2023-04-08T01:57:19;18.05;;;14.18;;
16478;SDS011;8350;52.316;10.530;2023-04-08T01:59:50;18.70;;;14.48;;
16478;SDS011;8350;52.316;10.530;2023-04-08T02:02:22;16.70;;;13.77;;
16478;SDS011;8350;52.316;10.530;2023-04-08T02:04:52;18.13;;;14.32;;
16478;SDS011;8350;52.316;10.530;2023-04-08T02:07:19;18.45;;;14.80;;
16478;SDS011;8350;52.316;10.530;2023-04-08T02:09:46;17.95;;;13.88;;
16478;SDS011;8350;52.316;10.530;2023-04-08T02:12:13;18.85;;;14.05;;
16478;SDS011;8350;52.316;10.530;2023-04-08T02:14:40;17.90;;;14.00;;
16478;SDS011;8350;52.316;10.530;2023-04-08T02:17:10;19.92;;;15.00;;
16478;SDS011;8350;52.316;10.530;2023-04-08T02:19:41;21.45;;;14.80;;
16478;SDS011;8350;52.316;10.530;2023-04-08T02:22:16;21.48;;;15.07;;
16478;SDS011;8350;52.316;10.530;2023-04-08T02:24:45;21.80;;;15.48;;
16478;SDS011;8350;52.316;10.530;2023-04-08T02:27:13;19.75;;;15.25;;
16478;SDS011;8350;52.316;10.530;2023-04-08T02:29:44;21.00;;;15.25;;
16478;SDS011;8350;52.316;10.530;2023-04-08T02:32:15;19.15;;;13.98;;
16478;SDS011;8350;52.316;10.530;2023-04-08T02:34:43;23.67;;;16.02;;
16478;SDS011;8350;52.316;10.530;2023-04-08T02:37:10;21.00;;;15.40;;
16478;SDS011;8350;52.316;10.530;2023-04-08T02:39:37;23.30;;;16.35;;
16478;SDS011;8350;52.316;10.530;2023-04-08T02:42:04;25.50;;;16.40;;
16478;SDS011;8350;52.316;10.530;2023-04-08T02:44:32;22.75;;;17.85;;
16478;SDS011;8350;52.316;10.530;2023-04-08T02:46:59;25.90;;;16.42;;
16478;SDS011;8350;52.316;10.530;2023-04-08T02:49:28;20.17;;;16.67;;
16478;SDS011;8350;52.316;10.530;2023-04-08T02:51:54;25.25;;;16.13;;
16478;SDS011;8350;52.316;10.530;2023-04-08T02:54:21;24.80;;;17.05;;
16478;SDS011;8350;52.316;10.530;2023-04-08T02:56:49;23.38;;;15.80;;
16478;SDS011;8350;52.316;10.530;2023-04-08T02:59:16;26.17;;;17.30;;
16478;SDS011;8350;52.316;10.530;2023-04-08T03:01:43;23.50;;;17.38;;
16478;SDS011;8350;52.316;10.530;2023-04-08T03:04:10;22.02;;;15.30;;
16478;SDS011;8350;52.316;10.530;2023-04-08T03:06:38;23.88;;;16.92;;
16478;SDS011;8350;52.316;10.530;2023-04-08T03:09:05;22.58;;;16.27;;
16478;SDS011;8350;52.316;10.530;2023-04-08T03:11:32;23.35;;;16.65;;
16478;SDS011;8350;52.316;10.530;2023-04-08T03:13:59;22.98;;;17.25;;
16478;SDS011;8350;52.316;10.530;2023-04-08T03:16:27;24.30;;;15.75;;
16478;SDS011;8350;52.316;10.530;2023-04-08T03:18:53;22.27;;;16.27;;
16478;SDS011;8350;52.316;10.530;2023-04-08T03:21:23;21.27;;;15.63;;
16478;SDS011;8350;52.316;10.530;2023-04-08T03:23:52;20.98;;;15.80;;
16478;SDS011;8350;52.316;10.530;2023-04-08T03:26:19;23.17;;;16.00;;
16478;SDS011;8350;52.316;10.530;2023-04-08T03:28:46;26.08;;;17.23;;
16478;SDS011;8350;52.316;10.530;2023-04-08T03:31:13;26.08;;;17.45;;
16478;SDS011;8350;52.316;10.530;2023-04-08T03:33:40;21.85;;;16.55;;
16478;SDS011;8350;52.316;10.530;2023-04-08T03:36:07;23.60;;;17.60;;
16478;SDS011;8350;52.316;10.530;2023-04-08T03:38:34;22.23;;;16.58;;
16478;SDS011;8350;52.316;10.530;2023-04-08T03:41:03;27.02;;;17.23;;
16478;SDS011;8350;52.316;10.530;2023-04-08T03:43:30;26.08;;;16.83;;
16478;SDS011;8350;52.316;10.530;2023-04-08T03:45:57;24.92;;;17.63;;
16478;SDS011;8350;52.316;10.530;2023-04-08T03:48:24;24.92;;;16.60;;
16478;SDS011;8350;52.316;10.530;2023-04-08T03:50:51;22.23;;;16.70;;
16478;SDS011;8350;52.316;10.530;2023-04-08T03:53:18;23.48;;;16.80;;
16478;SDS011;8350;52.316;10.530;2023-04-08T03:55:45;26.63;;;17.30;;
16478;SDS011;8350;52.316;10.530;2023-04-08T03:58:15;23.50;;;16.88;;
16478;SDS011;8350;52.316;10.530;2023-04-08T04:00:43;24.17;;;17.00;;
16478;SDS011;8350;52.316;10.530;2023-04-08T04:03:10;21.33;;;15.80;;
16478;SDS011;8350;52.316;10.530;2023-04-08T04:05:37;24.05;;;16.92;;
16478;SDS011;8350;52.316;10.530;2023-04-08T04:08:04;25.13;;;17.80;;
16478;SDS011;8350;52.316;10.530;2023-04-08T04:10:34;25.80;;;16.42;;
16478;SDS011;8350;52.316;10.530;2023-04-08T04:13:08;24.88;;;16.85;;
16478;SDS011;8350;52.316;10.530;2023-04-08T04:15:38;22.80;;;17.45;;
16478;SDS011;8350;52.316;10.530;2023-04-08T04:18:05;25.67;;;17.77;;
16478;SDS011;8350;52.316;10.530;2023-04-08T04:20:32;27.13;;;17.65;;
16478;SDS011;8350;52.316;10.530;2023-04-08T04:23:00;22.42;;;17.00;;
16478;SDS011;8350;52.316;10.530;2023-04-08T04:25:27;24.77;;;17.05;;
16478;SDS011;8350;52.316;10.530;2023-04-08T04:27:54;23.48;;;17.95;;
16478;SDS011;8350;52.316;10.530;2023-04-08T04:30:21;26.77;;;17.20;;
16478;SDS011;8350;52.316;10.530;2023-04-08T04:32:56;25.48;;;17.70;;
16478;SDS011;8350;52.316;10.530;2023-04-08T04:35:22;24.80;;;16.65;;
16478;SDS011;8350;52.316;10.530;2023-04-08T04:37:49;23.85;;;17.13;;
16478;SDS011;8350;52.316;10.530;2023-04-08T04:40:16;30.27;;;18.25;;
16478;SDS011;8350;52.316;10.530;2023-04-08T04:42:43;27.23;;;18.67;;
16478;SDS011;8350;52.316;10.530;2023-04-08T04:45:10;26.58;;;18.83;;
16478;SDS011;8350;52.316;10.530;2023-04-08T04:47:38;26.80;;;18.52;;
16478;SDS011;8350;52.316;10.530;2023-04-08T04:50:09;30.98;;;20.25;;
16478;SDS011;8350;52.316;10.530;2023-04-08T04:52:36;29.23;;;19.20;;
16478;SDS011;8350;52.316;10.530;2023-04-08T04:55:07;28.45;;;18.35;;
16478;SDS011;8350;52.316;10.530;2023-04-08T04:57:34;27.95;;;19.00;;
16478;SDS011;8350;52.316;10.530;2023-04-08T05:00:01;27.92;;;20.55;;
16478;SDS011;8350;52.316;10.530;2023-04-08T05:02:28;28.88;;;18.15;;
16478;SDS011;8350;52.316;10.530;2023-04-08T05:04:58;30.33;;;20.15;;
16478;SDS011;8350;52.316;10.530;2023-04-08T05:07:26;32.90;;;20.67;;
16478;SDS011;8350;52.316;10.530;2023-04-08T05:09:53;27.50;;;19.35;;
16478;SDS011;8350;52.316;10.530;2023-04-08T05:12:21;30.00;;;19.25;;
16478;SDS011;8350;52.316;10.530;2023-04-08T05:14:49;33.50;;;20.95;;
16478;SDS011;8350;52.316;10.530;2023-04-08T05:17:16;31.45;;;19.13;;
16478;SDS011;8350;52.316;10.530;2023-04-08T05:19:46;26.55;;;19.15;;
16478;SDS011;8350;52.316;10.530;2023-04-08T05:22:13;36.67;;;21.45;;
16478;SDS011;8350;52.316;10.530;2023-04-08T05:24:42;31.30;;;20.40;;
16478;SDS011;8350;52.316;10.530;2023-04-08T05:27:09;34.00;;;21.45;;
16478;SDS011;8350;52.316;10.530;2023-04-08T05:29:36;34.20;;;22.10;;
16478;SDS011;8350;52.316;10.530;2023-04-08T05:32:02;30.55;;;21.30;;
16478;SDS011;8350;52.316;10.530;2023-04-08T05:34:30;35.10;;;23.90;;
16478;SDS011;8350;52.316;10.530;2023-04-08T05:36:57;34.08;;;21.45;;
16478;SDS011;8350;52.316;10.530;2023-04-08T05:39:24;36.92;;;22.02;;
16478;SDS011;8350;52.316;10.530;2023-04-08T05:41:52;38.95;;;22.02;;
16478;SDS011;8350;52.316;10.530;2023-04-08T05:44:19;38.65;;;22.98;;
16478;SDS011;8350;52.316;10.530;2023-04-08T05:46:49;35.08;;;21.95;;
16478;SDS011;8350;52.316;10.530;2023-04-08T05:49:16;35.78;;;20.75;;
16478;SDS011;8350;52.316;10.530;2023-04-08T05:51:43;38.88;;;22.00;;
16478;SDS011;8350;52.316;10.530;2023-04-08T05:54:10;41.58;;;24.13;;
16478;SDS011;8350;52.316;10.530;2023-04-08T05:56:37;35.60;;;22.80;;
16478;SDS011;8350;52.316;10.530;2023-04-08T05:59:06;36.42;;;22.90;;
16478;SDS011;8350;52.316;10.530;2023-04-08T06:01:32;36.05;;;22.52;;
16478;SDS011;8350;52.316;10.530;2023-04-08T06:04:00;41.33;;;24.02;;
16478;SDS011;8350;52.316;10.530;2023-04-08T06:06:27;41.40;;;23.15;;
16478;SDS011;8350;52.316;10.530;2023-04-08T06:08:53;41.00;;;24.13;;
16478;SDS011;8350;52.316;10.530;2023-04-08T06:11:20;41.38;;;23.67;;
16478;SDS011;8350;52.316;10.530;2023-04-08T06:13:47;37.60;;;22.35;;
16478;SDS011;8350;52.316;10.530;2023-04-08T06:16:16;40.80;;;22.80;;
16478;SDS011;8350;52.316;10.530;2023-04-08T06:18:43;44.95;;;23.38;;
16478;SDS011;8350;52.316;10.530;2023-04-08T06:21:10;41.53;;;23.45;;
16478;SDS011;8350;52.316;10.530;2023-04-08T06:23:36;43.65;;;23.98;;
16478;SDS011;8350;52.316;10.530;2023-04-08T06:26:03;41.90;;;23.85;;
16478;SDS011;8350;52.316;10.530;2023-04-08T06:28:31;36.35;;;22.30;;
16478;SDS011;8350;52.316;10.530;2023-04-08T06:31:00;39.60;;;24.40;;
16478;SDS011;8350;52.316;10.530;2023-04-08T06:33:28;39.63;;;23.30;;
16478;SDS011;8350;52.316;10.530;2023-04-08T06:36:01;39.45;;;23.90;;
16478;SDS011;8350;52.316;10.530;2023-04-08T06:38:29;45.25;;;23.88;;
16478;SDS011;8350;52.316;10.530;2023-04-08T06:40:56;40.63;;;23.50;;
16478;SDS011;8350;52.316;10.530;2023-04-08T06:43:27;40.55;;;24.30;;
16478;SDS011;8350;52.316;10.530;2023-04-08T06:45:54;40.58;;;23.60;;
16478;SDS011;8350;52.316;10.530;2023-04-08T06:48:22;41.20;;;24.02;;
16478;SDS011;8350;52.316;10.530;2023-04-08T06:50:54;38.78;;;25.27;;
16478;SDS011;8350;52.316;10.530;2023-04-08T06:53:21;38.45;;;24.85;;
16478;SDS011;8350;52.316;10.530;2023-04-08T06:55:48;40.10;;;25.02;;
16478;SDS011;8350;52.316;10.530;2023-04-08T06:58:15;36.78;;;23.35;;
16478;SDS011;8350;52.316;10.530;2023-04-08T07:00:42;37.08;;;22.85;;
16478;SDS011;8350;52.316;10.530;2023-04-08T07:03:09;42.05;;;24.38;;
16478;SDS011;8350;52.316;10.530;2023-04-08T07:05:36;36.20;;;22.67;;
16478;SDS011;8350;52.316;10.530;2023-04-08T07:08:06;38.67;;;24.65;;
16478;SDS011;8350;52.316;10.530;2023-04-08T07:10:38;33.40;;;23.45;;
16478;SDS011;8350;52.316;10.530;2023-04-08T07:13:06;37.78;;;21.75;;
16478;SDS011;8350;52.316;10.530;2023-04-08T07:15:32;36.08;;;23.17;;
16478;SDS011;8350;52.316;10.530;2023-04-08T07:17:59;35.63;;;22.35;;
16478;SDS011;8350;52.316;10.530;2023-04-08T07:20:28;39.88;;;23.23;;
16478;SDS011;8350;52.316;10.530;2023-04-08T07:22:55;36.63;;;24.08;;
16478;SDS011;8350;52.316;10.530;2023-04-08T07:25:24;37.10;;;23.30;;
16478;SDS011;8350;52.316;10.530;2023-04-08T07:27:54;40.03;;;25.75;;
16478;SDS011;8350;52.316;10.530;2023-04-08T07:30:22;43.40;;;25.77;;
16478;SDS011;8350;52.316;10.530;2023-04-08T07:32:52;39.83;;;24.75;;
16478;SDS011;8350;52.316;10.530;2023-04-08T07:35:19;38.92;;;24.75;;
16478;SDS011;8350;52.316;10.530;2023-04-08T07:37:50;36.35;;;23.50;;
16478;SDS011;8350;52.316;10.530;2023-04-08T07:40:17;39.38;;;25.42;;
16478;SDS011;8350;52.316;10.530;2023-04-08T07:42:46;38.28;;;24.58;;
16478;SDS011;8350;52.316;10.530;2023-04-08T07:45:13;40.97;;;25.23;;
16478;SDS011;8350;52.316;10.530;2023-04-08T07:47:41;40.63;;;24.63;;
16478;SDS011;8350;52.316;10.530;2023-04-08T07:50:11;32.00;;;21.65;;
16478;SDS011;8350;52.316;10.530;2023-04-08T07:52:38;36.72;;;22.95;;
16478;SDS011;8350;52.316;10.530;2023-04-08T07:55:06;33.28;;;22.38;;
16478;SDS011;8350;52.316;10.530;2023-04-08T07:57:35;40.55;;;25.15;;
16478;SDS011;8350;52.316;10.530;2023-04-08T08:00:04;40.28;;;25.25;;
16478;SDS011;8350;52.316;10.530;2023-04-08T08:02:32;38.08;;;24.55;;
16478;SDS011;8350;52.316;10.530;2023-04-08T08:05:00;36.10;;;22.60;;
16478;SDS011;8350;52.316;10.530;2023-04-08T08:07:27;39.50;;;25.52;;
16478;SDS011;8350;52.316;10.530;2023-04-08T08:09:54;48.67;;;26.67;;
16478;SDS011;8350;52.316;10.530;2023-04-08T08:12:21;37.58;;;26.90;;
16478;SDS011;8350;52.316;10.530;2023-04-08T08:14:50;37.90;;;24.23;;
16478;SDS011;8350;52.316;10.530;2023-04-08T08:17:20;38.00;;;26.13;;
16478;SDS011;8350;52.316;10.530;2023-04-08T08:19:47;39.58;;;25.60;;
16478;SDS011;8350;52.316;10.530;2023-04-08T08:22:14;40.83;;;25.80;;
16478;SDS011;8350;52.316;10.530;2023-04-08T08:24:41;42.45;;;25.40;;
16478;SDS011;8350;52.316;10.530;2023-04-08T08:27:09;37.75;;;24.77;;
16478;SDS011;8350;52.316;10.530;2023-04-08T08:29:36;39.67;;;25.75;;
16478;SDS011;8350;52.316;10.530;2023-04-08T08:32:05;40.47;;;26.42;;
16478;SDS011;8350;52.316;10.530;2023-04-08T08:34:34;42.17;;;26.42;;
16478;SDS011;8350;52.316;10.530;2023-04-08T08:37:01;51.20;;;30.42;;
16478;SDS011;8350;52.316;10.530;2023-04-08T08:39:27;55.50;;;35.38;;
16478;SDS011;8350;52.316;10.530;2023-04-08T08:41:54;66.95;;;36.42;;
16478;SDS011;8350;52.316;10.530;2023-04-08T08:44:23;61.10;;;36.92;;
16478;SDS011;8350;52.316;10.530;2023-04-08T08:46:51;66.32;;;39.35;;
16478;SDS011;8350;52.316;10.530;2023-04-08T08:49:18;60.80;;;39.40;;
16478;SDS011;8350;52.316;10.530;2023-04-08T08:51:47;64.90;;;38.35;;
16478;SDS011;8350;52.316;10.530;2023-04-08T08:54:15;60.05;;;38.22;;
16478;SDS011;8350;52.316;10.530;2023-04-08T08:56:42;61.90;;;37.70;;
16478;SDS011;8350;52.316;10.530;2023-04-08T08:59:09;66.88;;;37.92;;
16478;SDS011;8350;52.316;10.530;2023-04-08T09:01:37;61.13;;;37.53;;
16478;SDS011;8350;52.316;10.530;2023-04-08T09:04:12;63.50;;;38.10;;
16478;SDS011;8350;52.316;10.530;2023-04-08T09:06:41;61.72;;;35.60;;
16478;SDS011;8350;52.316;10.530;2023-04-08T09:09:10;61.80;;;36.53;;
16478;SDS011;8350;52.316;10.530;2023-04-08T09:11:37;65.13;;;38.90;;
16478;SDS011;8350;52.316;10.530;2023-04-08T09:14:07;61.28;;;38.20;;
16478;SDS011;8350;52.316;10.530;2023-04-08T09:16:43;66.80;;;36.70;;
16478;SDS011;8350;52.316;10.530;2023-04-08T09:19:11;70.45;;;38.45;;
16478;SDS011;8350;52.316;10.530;2023-04-08T09:21:38;74.05;;;40.80;;
16478;SDS011;8350;52.316;10.530;2023-04-08T09:24:06;74.45;;;40.45;;
16478;SDS011;8350;52.316;10.530;2023-04-08T09:26:34;76.07;;;40.83;;
16478;SDS011;8350;52.316;10.530;2023-04-08T09:29:03;72.28;;;41.00;;
16478;SDS011;8350;52.316;10.530;2023-04-08T09:31:33;72.05;;;40.95;;
16478;SDS011;8350;52.316;10.530;2023-04-08T09:34:08;66.65;;;39.53;;
16478;SDS011;8350;52.316;10.530;2023-04-08T09:36:37;68.00;;;38.45;;
16478;SDS011;8350;52.316;10.530;2023-04-08T09:39:04;68.47;;;38.30;;
16478;SDS011;8350;52.316;10.530;2023-04-08T09:41:32;58.97;;;36.53;;
16478;SDS011;8350;52.316;10.530;2023-04-08T09:44:03;64.40;;;37.83;;
16478;SDS011;8350;52.316;10.530;2023-04-08T09:46:32;66.97;;;37.38;;
16478;SDS011;8350;52.316;10.530;2023-04-08T09:49:06;59.10;;;38.28;;
16478;SDS011;8350;52.316;10.530;2023-04-08T09:51:52;59.45;;;34.42;;
16478;SDS011;8350;52.316;10.530;2023-04-08T09:54:25;61.05;;;36.53;;
16478;SDS011;8350;52.316;10.530;2023-04-08T09:57:02;61.85;;;35.03;;
16478;SDS011;8350;52.316;10.530;2023-04-08T09:59:33;61.08;;;37.30;;
16478;SDS011;8350;52.316;10.530;2023-04-08T10:02:04;58.10;;;34.60;;
16478;SDS011;8350;52.316;10.530;2023-04-08T10:04:34;57.10;;;31.08;;
16478;SDS011;8350;52.316;10.530;2023-04-08T10:07:05;51.40;;;29.23;;
16478;SDS011;8350;52.316;10.530;2023-04-08T10:09:34;52.38;;;30.50;;
16478;SDS011;8350;52.316;10.530;2023-04-08T10:12:04;49.00;;;30.75;;
16478;SDS011;8350;52.316;10.530;2023-04-08T10:14:35;50.17;;;28.38;;
16478;SDS011;8350;52.316;10.530;2023-04-08T10:19:52;41.53;;;26.17;;
16478;SDS011;8350;52.316;10.530;2023-04-08T10:25:28;38.65;;;23.67;;
16478;SDS011;8350;52.316;10.530;2023-04-08T10:27:58;47.03;;;26.75;;
16478;SDS011;8350;52.316;10.530;2023-04-08T10:30:37;41.90;;;26.48;;
16478;SDS011;8350;52.316;10.530;2023-04-08T10:33:08;43.38;;;26.00;;
16478;SDS011;8350;52.316;10.530;2023-04-08T10:35:37;40.28;;;24.45;;
16478;SDS011;8350;52.316;10.530;2023-04-08T10:38:06;40.63;;;24.35;;
16478;SDS011;8350;52.316;10.530;2023-04-08T10:40:34;43.22;;;24.42;;
16478;SDS011;8350;52.316;10.530;2023-04-08T10:43:04;47.58;;;24.15;;
16478;SDS011;8350;52.316;10.530;2023-04-08T10:45:31;39.55;;;24.15;;
16478;SDS011;8350;52.316;10.530;2023-04-08T10:48:10;43.03;;;24.48;;
16478;SDS011;8350;52.316;10.530;2023-04-08T10:50:37;42.95;;;23.05;;
16478;SDS011;8350;52.316;10.530;2023-04-08T10:53:06;42.30;;;24.02;;
16478;SDS011;8350;52.316;10.530;2023-04-08T10:55:33;38.65;;;23.40;;
16478;SDS011;8350;52.316;10.530;2023-04-08T10:58:08;36.97;;;22.15;;
16478;SDS011;8350;52.316;10.530;2023-04-08T11:00:37;34.15;;;21.17;;
16478;SDS011;8350;52.316;10.530;2023-04-08T11:03:05;34.13;;;20.95;;
16478;SDS011;8350;52.316;10.530;2023-04-08T11:05:34;42.08;;;23.70;;
16478;SDS011;8350;52.316;10.530;2023-04-08T11:08:02;40.95;;;24.13;;
16478;SDS011;8350;52.316;10.530;2023-04-08T11:10:32;37.13;;;22.42;;
16478;SDS011;8350;52.316;10.530;2023-04-08T11:13:02;38.92;;;23.40;;
16478;SDS011;8350;52.316;10.530;2023-04-08T11:15:34;41.42;;;23.55;;
16478;SDS011;8350;52.316;10.530;2023-04-08T11:18:01;45.33;;;25.45;;
16478;SDS011;8350;52.316;10.530;2023-04-08T11:20:30;45.90;;;24.52;;
16478;SDS011;8350;52.316;10.530;2023-04-08T11:23:01;41.95;;;24.73;;
16478;SDS011;8350;52.316;10.530;2023-04-08T11:25:28;39.20;;;24.85;;
16478;SDS011;8350;52.316;10.530;2023-04-08T11:27:58;39.92;;;24.27;;
16478;SDS011;8350;52.316;10.530;2023-04-08T11:30:25;39.97;;;24.77;;
16478;SDS011;8350;52.316;10.530;2023-04-08T11:32:54;40.03;;;23.90;;
16478;SDS011;8350;52.316;10.530;2023-04-08T11:35:22;43.47;;;24.23;;
16478;SDS011;8350;52.316;10.530;2023-04-08T11:37:50;38.35;;;22.65;;
16478;SDS011;8350;52.316;10.530;2023-04-08T11:40:18;37.92;;;22.27;;
16478;SDS011;8350;52.316;10.530;2023-04-08T11:42:48;33.13;;;21.60;;
16478;SDS011;8350;52.316;10.530;2023-04-08T11:45:19;39.28;;;22.38;;
16478;SDS011;8350;52.316;10.530;2023-04-08T11:47:46;42.22;;;24.35;;
16478;SDS011;8350;52.316;10.530;2023-04-08T11:50:22;35.58;;;22.95;;
16478;SDS011;8350;52.316;10.530;2023-04-08T11:52:51;37.45;;;23.23;;
16478;SDS011;8350;52.316;10.530;2023-04-08T11:55:23;39.95;;;23.52;;
16478;SDS011;8350;52.316;10.530;2023-04-08T11:57:51;38.28;;;24.88;;
16478;SDS011;8350;52.316;10.530;2023-04-08T12:00:19;36.50;;;23.60;;
16478;SDS011;8350;52.316;10.530;2023-04-08T12:02:47;34.42;;;21.40;;
16478;SDS011;8350;52.316;10.530;2023-04-08T12:05:15;34.92;;;22.70;;
16478;SDS011;8350;52.316;10.530;2023-04-08T12:07:43;31.33;;;21.42;;
16478;SDS011;8350;52.316;10.530;2023-04-08T12:10:13;28.00;;;20.02;;
16478;SDS011;8350;52.316;10.530;2023-04-08T12:12:40;34.05;;;23.40;;
16478;SDS011;8350;52.316;10.530;2023-04-08T12:15:07;29.35;;;19.70;;
16478;SDS011;8350;52.316;10.530;2023-04-08T12:17:35;30.13;;;19.85;;
16478;SDS011;8350;52.316;10.530;2023-04-08T12:20:03;34.70;;;20.77;;
16478;SDS011;8350;52.316;10.530;2023-04-08T12:22:31;29.88;;;18.65;;
16478;SDS011;8350;52.316;10.530;2023-04-08T12:24:59;28.65;;;18.58;;
16478;SDS011;8350;52.316;10.530;2023-04-08T12:27:28;26.92;;;18.95;;
16478;SDS011;8350;52.316;10.530;2023-04-08T12:29:57;27.45;;;19.17;;
16478;SDS011;8350;52.316;10.530;2023-04-08T12:32:24;29.52;;;19.58;;
16478;SDS011;8350;52.316;10.530;2023-04-08T12:34:51;30.90;;;19.20;;
16478;SDS011;8350;52.316;10.530;2023-04-08T12:37:18;28.52;;;17.77;;
16478;SDS011;8350;52.316;10.530;2023-04-08T12:39:46;29.08;;;19.38;;
16478;SDS011;8350;52.316;10.530;2023-04-08T12:42:14;27.27;;;19.02;;
16478;SDS011;8350;52.316;10.530;2023-04-08T12:44:41;27.38;;;19.70;;
16478;SDS011;8350;52.316;10.530;2023-04-08T12:47:08;28.42;;;18.33;;
16478;SDS011;8350;52.316;10.530;2023-04-08T12:49:35;30.75;;;19.58;;
16478;SDS011;8350;52.316;10.530;2023-04-08T12:52:02;28.38;;;19.08;;
16478;SDS011;8350;52.316;10.530;2023-04-08T12:54:29;25.73;;;18.20;;
16478;SDS011;8350;52.316;10.530;2023-04-08T12:56:57;28.17;;;18.77;;
16478;SDS011;8350;52.316;10.530;2023-04-08T12:59:26;23.90;;;16.33;;
16478;SDS011;8350;52.316;10.530;2023-04-08T13:01:53;25.20;;;17.70;;
16478;SDS011;8350;52.316;10.530;2023-04-08T13:04:20;26.30;;;16.90;;
16478;SDS011;8350;52.316;10.530;2023-04-08T13:06:47;26.63;;;17.08;;
16478;SDS011;8350;52.316;10.530;2023-04-08T13:09:15;24.00;;;17.00;;
16478;SDS011;8350;52.316;10.530;2023-04-08T13:11:42;21.05;;;16.42;;
16478;SDS011;8350;52.316;10.530;2023-04-08T13:14:09;23.95;;;16.60;;
16478;SDS011;8350;52.316;10.530;2023-04-08T13:16:39;25.02;;;17.92;;
16478;SDS011;8350;52.316;10.530;2023-04-08T13:19:06;28.17;;;18.95;;
16478;SDS011;8350;52.316;10.530;2023-04-08T13:21:33;25.75;;;18.83;;
16478;SDS011;8350;52.316;10.530;2023-04-08T13:23:59;26.38;;;19.40;;
16478;SDS011;8350;52.316;10.530;2023-04-08T13:26:26;23.02;;;18.45;;
16478;SDS011;8350;52.316;10.530;2023-04-08T13:28:53;26.63;;;19.35;;
16478;SDS011;8350;52.316;10.530;2023-04-08T13:31:21;25.15;;;18.92;;
16478;SDS011;8350;52.316;10.530;2023-04-08T13:33:50;25.02;;;20.50;;
16478;SDS011;8350;52.316;10.530;2023-04-08T13:36:16;29.95;;;21.30;;
16478;SDS011;8350;52.316;10.530;2023-04-08T13:38:43;29.52;;;21.58;;
16478;SDS011;8350;52.316;10.530;2023-04-08T13:41:10;29.35;;;21.77;;
16478;SDS011;8350;52.316;10.530;2023-04-08T13:43:37;33.92;;;23.35;;
16478;SDS011;8350;52.316;10.530;2023-04-08T13:46:05;27.23;;;21.42;;
16478;SDS011;8350;52.316;10.530;2023-04-08T13:48:32;24.38;;;19.35;;
16478;SDS011;8350;52.316;10.530;2023-04-08T13:51:00;27.20;;;20.48;;
16478;SDS011;8350;52.316;10.530;2023-04-08T13:53:27;23.20;;;17.65;;
16478;SDS011;8350;52.316;10.530;2023-04-08T13:55:54;22.88;;;16.95;;
16478;SDS011;8350;52.316;10.530;2023-04-08T13:58:23;22.73;;;16.75;;
16478;SDS011;8350;52.316;10.530;2023-04-08T14:00:50;23.23;;;17.00;;
16478;SDS011;8350;52.316;10.530;2023-04-08T14:03:17;20.38;;;16.08;;
16478;SDS011;8350;52.316;10.530;2023-04-08T14:05:44;18.85;;;15.73;;
16478;SDS011;8350;52.316;10.530;2023-04-08T14:08:13;21.13;;;16.75;;
16478;SDS011;8350;52.316;10.530;2023-04-08T14:10:40;23.08;;;16.52;;
16478;SDS011;8350;52.316;10.530;2023-04-08T14:13:07;21.52;;;17.13;;
16478;SDS011;8350;52.316;10.530;2023-04-08T14:15:34;22.50;;;16.65;;
16478;SDS011;8350;52.316;10.530;2023-04-08T14:18:00;21.48;;;16.58;;
16478;SDS011;8350;52.316;10.530;2023-04-08T14:20:28;21.38;;;17.08;;
16478;SDS011;8350;52.316;10.530;2023-04-08T14:22:55;22.20;;;18.42;;
16478;SDS011;8350;52.316;10.530;2023-04-08T14:25:23;21.63;;;17.50;;
16478;SDS011;8350;52.316;10.530;2023-04-08T14:27:51;21.35;;;17.50;;
16478;SDS011;8350;52.316;10.530;2023-04-08T14:30:17;19.73;;;16.05;;
16478;SDS011;8350;52.316;10.530;2023-04-08T14:32:45;24.05;;;17.50;;